sensor_id;sensor_type;location;lat;lon;timestamp;P1;durP1;ratioP1;P2;durP2;ratioP2
14121;SDS011;7139;48.114;11.442;2024-01-25T00:01:21;7.60;;;2.50;;
14121;SDS011;7139;48.114;11.442;2024-01-25T00:03:48;8.97;;;2.57;;
14121;SDS011;7139;48.114;11.442;2024-01-25T00:06:16;5.97;;;2.07;;
14121;SDS011;7139;48.114;11.442;2024-01-25T00:08:43;6.83;;;2.00;;
14121;SDS011;7139;48.114;11.442;2024-01-25T00:11:11;5.90;;;2.53;;
14121;SDS011;7139;48.114;11.442;2024-01-25T00:13:38;8.13;;;2.40;;
14121;SDS011;7139;48.114;11.442;2024-01-25T00:16:05;5.90;;;2.17;;
14121;SDS011;7139;48.114;11.442;2024-01-25T00:18:32;8.13;;;2.60;;
14121;SDS011;7139;48.114;11.442;2024-01-25T00:20:59;7.30;;;2.40;;
14121;SDS011;7139;48.114;11.442;2024-01-25T00:23:26;6.73;;;2.60;;
14121;SDS011;7139;48.114;11.442;2024-01-25T00:25:53;6.97;;;2.10;;
14121;SDS011;7139;48.114;11.442;2024-01-25T00:28:24;7.27;;;2.10;;
14121;SDS011;7139;48.114;11.442;2024-01-25T00:30:53;4.87;;;2.27;;
14121;SDS011;7139;48.114;11.442;2024-01-25T00:33:20;5.50;;;2.10;;
14121;SDS011;7139;48.114;11.442;2024-01-25T00:35:47;7.70;;;2.80;;
14121;SDS011;7139;48.114;11.442;2024-01-25T00:38:14;5.50;;;1.80;;
14121;SDS011;7139;48.114;11.442;2024-01-25T00:40:42;9.47;;;2.60;;
14121;SDS011;7139;48.114;11.442;2024-01-25T00:43:09;7.43;;;2.60;;
14121;SDS011;7139;48.114;11.442;2024-01-25T00:45:38;7.80;;;2.90;;
14121;SDS011;7139;48.114;11.442;2024-01-25T00:48:06;8.93;;;2.40;;
14121;SDS011;7139;48.114;11.442;2024-01-25T00:50:33;8.50;;;2.33;;
14121;SDS011;7139;48.114;11.442;2024-01-25T00:53:00;5.23;;;2.00;;
14121;SDS011;7139;48.114;11.442;2024-01-25T00:55:28;8.10;;;2.00;;
14121;SDS011;7139;48.114;11.442;2024-01-25T00:57:55;9.10;;;2.90;;
14121;SDS011;7139;48.114;11.442;2024-01-25T01:00:23;9.33;;;2.43;;
14121;SDS011;7139;48.114;11.442;2024-01-25T01:02:51;9.27;;;2.90;;
14121;SDS011;7139;48.114;11.442;2024-01-25T01:05:20;7.13;;;2.27;;
14121;SDS011;7139;48.114;11.442;2024-01-25T01:07:47;8.57;;;2.53;;
14121;SDS011;7139;48.114;11.442;2024-01-25T01:10:14;7.20;;;2.53;;
14121;SDS011;7139;48.114;11.442;2024-01-25T01:12:41;9.57;;;2.60;;
14121;SDS011;7139;48.114;11.442;2024-01-25T01:15:09;9.17;;;2.80;;
14121;SDS011;7139;48.114;11.442;2024-01-25T01:17:36;7.20;;;2.43;;
14121;SDS011;7139;48.114;11.442;2024-01-25T01:20:05;6.27;;;2.37;;
14121;SDS011;7139;48.114;11.442;2024-01-25T01:22:32;10.93;;;2.80;;
14121;SDS011;7139;48.114;11.442;2024-01-25T01:24:59;7.70;;;2.60;;
14121;SDS011;7139;48.114;11.442;2024-01-25T01:27:26;5.60;;;2.27;;
14121;SDS011;7139;48.114;11.442;2024-01-25T01:29:53;8.33;;;2.47;;
14121;SDS011;7139;48.114;11.442;2024-01-25T01:32:20;11.43;;;2.30;;
14121;SDS011;7139;48.114;11.442;2024-01-25T01:34:47;11.13;;;2.73;;
14121;SDS011;7139;48.114;11.442;2024-01-25T01:37:16;7.53;;;2.53;;
14121;SDS011;7139;48.114;11.442;2024-01-25T01:39:43;9.00;;;2.80;;
14121;SDS011;7139;48.114;11.442;2024-01-25T01:42:10;8.83;;;2.70;;
14121;SDS011;7139;48.114;11.442;2024-01-25T01:44:37;8.60;;;2.27;;
14121;SDS011;7139;48.114;11.442;2024-01-25T01:47:05;8.27;;;2.23;;
14121;SDS011;7139;48.114;11.442;2024-01-25T01:49:32;8.87;;;2.70;;
14121;SDS011;7139;48.114;11.442;2024-01-25T01:51:59;6.83;;;2.60;;
14121;SDS011;7139;48.114;11.442;2024-01-25T01:54:28;9.57;;;2.30;;
14121;SDS011;7139;48.114;11.442;2024-01-25T01:56:55;7.63;;;2.10;;
14121;SDS011;7139;48.114;11.442;2024-01-25T01:59:22;8.17;;;2.17;;
14121;SDS011;7139;48.114;11.442;2024-01-25T02:01:50;7.17;;;2.17;;
14121;SDS011;7139;48.114;11.442;2024-01-25T02:04:17;7.13;;;2.50;;
14121;SDS011;7139;48.114;11.442;2024-01-25T02:06:44;8.27;;;2.30;;
14121;SDS011;7139;48.114;11.442;2024-01-25T02:09:11;6.27;;;1.80;;
14121;SDS011;7139;48.114;11.442;2024-01-25T02:11:40;5.67;;;2.10;;
14121;SDS011;7139;48.114;11.442;2024-01-25T02:14:07;8.47;;;2.50;;
14121;SDS011;7139;48.114;11.442;2024-01-25T02:16:36;6.90;;;2.60;;
14121;SDS011;7139;48.114;11.442;2024-01-25T02:19:03;7.83;;;2.63;;
14121;SDS011;7139;48.114;11.442;2024-01-25T02:21:30;6.53;;;2.23;;
14121;SDS011;7139;48.114;11.442;2024-01-25T02:23:59;4.90;;;2.27;;
14121;SDS011;7139;48.114;11.442;2024-01-25T02:26:26;7.53;;;2.53;;
14121;SDS011;7139;48.114;11.442;2024-01-25T02:28:53;4.83;;;2.17;;
14121;SDS011;7139;48.114;11.442;2024-01-25T02:31:20;9.97;;;2.50;;
14121;SDS011;7139;48.114;11.442;2024-01-25T02:33:47;7.50;;;2.60;;
14121;SDS011;7139;48.114;11.442;2024-01-25T02:36:14;10.97;;;2.37;;
14121;SDS011;7139;48.114;11.442;2024-01-25T02:38:41;11.30;;;2.70;;
14121;SDS011;7139;48.114;11.442;2024-01-25T02:41:10;5.13;;;1.90;;
14121;SDS011;7139;48.114;11.442;2024-01-25T02:43:37;8.17;;;2.40;;
14121;SDS011;7139;48.114;11.442;2024-01-25T02:46:04;6.53;;;2.43;;
14121;SDS011;7139;48.114;11.442;2024-01-25T02:48:31;9.00;;;2.50;;
14121;SDS011;7139;48.114;11.442;2024-01-25T02:50:58;6.43;;;2.10;;
14121;SDS011;7139;48.114;11.442;2024-01-25T02:53:25;7.27;;;2.33;;
14121;SDS011;7139;48.114;11.442;2024-01-25T02:55:52;6.43;;;2.33;;
14121;SDS011;7139;48.114;11.442;2024-01-25T02:58:20;8.70;;;2.50;;
14121;SDS011;7139;48.114;11.442;2024-01-25T03:00:48;7.73;;;2.13;;
14121;SDS011;7139;48.114;11.442;2024-01-25T03:03:15;8.10;;;2.40;;
14121;SDS011;7139;48.114;11.442;2024-01-25T03:05:42;7.03;;;2.07;;
14121;SDS011;7139;48.114;11.442;2024-01-25T03:08:09;8.47;;;2.63;;
14121;SDS011;7139;48.114;11.442;2024-01-25T03:10:36;9.17;;;2.53;;
14121;SDS011;7139;48.114;11.442;2024-01-25T03:13:03;6.90;;;2.20;;
14121;SDS011;7139;48.114;11.442;2024-01-25T03:15:32;7.93;;;2.60;;
14121;SDS011;7139;48.114;11.442;2024-01-25T03:17:59;6.40;;;2.40;;
14121;SDS011;7139;48.114;11.442;2024-01-25T03:20:26;7.63;;;2.23;;
14121;SDS011;7139;48.114;11.442;2024-01-25T03:22:53;9.77;;;2.53;;
14121;SDS011;7139;48.114;11.442;2024-01-25T03:25:20;8.57;;;2.23;;
14121;SDS011;7139;48.114;11.442;2024-01-25T03:27:47;8.10;;;2.30;;
14121;SDS011;7139;48.114;11.442;2024-01-25T03:30:14;7.80;;;2.60;;
14121;SDS011;7139;48.114;11.442;2024-01-25T03:32:43;7.33;;;2.33;;
14121;SDS011;7139;48.114;11.442;2024-01-25T03:35:10;8.33;;;2.37;;
14121;SDS011;7139;48.114;11.442;2024-01-25T03:37:37;9.40;;;2.30;;
14121;SDS011;7139;48.114;11.442;2024-01-25T03:40:05;6.50;;;2.00;;
14121;SDS011;7139;48.114;11.442;2024-01-25T03:42:32;6.37;;;2.00;;
14121;SDS011;7139;48.114;11.442;2024-01-25T03:44:59;7.53;;;2.07;;
14121;SDS011;7139;48.114;11.442;2024-01-25T03:47:26;7.50;;;2.37;;
14121;SDS011;7139;48.114;11.442;2024-01-25T03:49:54;7.07;;;2.37;;
14121;SDS011;7139;48.114;11.442;2024-01-25T03:52:22;4.93;;;1.90;;
14121;SDS011;7139;48.114;11.442;2024-01-25T03:54:49;6.93;;;2.77;;
14121;SDS011;7139;48.114;11.442;2024-01-25T03:57:16;7.07;;;2.63;;
14121;SDS011;7139;48.114;11.442;2024-01-25T03:59:43;7.70;;;2.87;;
14121;SDS011;7139;48.114;11.442;2024-01-25T04:02:10;6.03;;;2.33;;
14121;SDS011;7139;48.114;11.442;2024-01-25T04:04:37;9.07;;;2.10;;
14121;SDS011;7139;48.114;11.442;2024-01-25T04:07:05;6.63;;;2.30;;
14121;SDS011;7139;48.114;11.442;2024-01-25T04:09:32;8.70;;;2.00;;
14121;SDS011;7139;48.114;11.442;2024-01-25T04:11:59;8.33;;;2.43;;
14121;SDS011;7139;48.114;11.442;2024-01-25T04:14:26;5.17;;;2.20;;
14121;SDS011;7139;48.114;11.442;2024-01-25T04:16:53;5.30;;;1.87;;
14121;SDS011;7139;48.114;11.442;2024-01-25T04:19:20;5.17;;;1.87;;
14121;SDS011;7139;48.114;11.442;2024-01-25T04:21:48;4.77;;;2.10;;
14121;SDS011;7139;48.114;11.442;2024-01-25T04:24:16;5.63;;;1.93;;
14121;SDS011;7139;48.114;11.442;2024-01-25T04:26:43;8.77;;;3.30;;
14121;SDS011;7139;48.114;11.442;2024-01-25T04:29:10;4.83;;;2.17;;
14121;SDS011;7139;48.114;11.442;2024-01-25T04:31:42;7.90;;;2.30;;
14121;SDS011;7139;48.114;11.442;2024-01-25T04:34:10;7.70;;;3.40;;
14121;SDS011;7139;48.114;11.442;2024-01-25T04:36:37;8.67;;;2.80;;
14121;SDS011;7139;48.114;11.442;2024-01-25T04:39:04;8.30;;;2.40;;
14121;SDS011;7139;48.114;11.442;2024-01-25T04:41:32;5.63;;;1.93;;
14121;SDS011;7139;48.114;11.442;2024-01-25T04:43:59;8.37;;;3.07;;
14121;SDS011;7139;48.114;11.442;2024-01-25T04:46:27;11.17;;;2.60;;
14121;SDS011;7139;48.114;11.442;2024-01-25T04:48:54;9.27;;;2.07;;
14121;SDS011;7139;48.114;11.442;2024-01-25T04:51:22;5.10;;;1.80;;
14121;SDS011;7139;48.114;11.442;2024-01-25T04:53:52;7.40;;;2.20;;
14121;SDS011;7139;48.114;11.442;2024-01-25T04:56:19;5.80;;;1.90;;
14121;SDS011;7139;48.114;11.442;2024-01-25T04:58:48;4.10;;;1.80;;
14121;SDS011;7139;48.114;11.442;2024-01-25T05:01:15;5.93;;;1.90;;
14121;SDS011;7139;48.114;11.442;2024-01-25T05:03:42;5.50;;;1.93;;
14121;SDS011;7139;48.114;11.442;2024-01-25T05:06:09;6.13;;;1.90;;
14121;SDS011;7139;48.114;11.442;2024-01-25T05:08:36;4.90;;;1.70;;
14121;SDS011;7139;48.114;11.442;2024-01-25T05:11:03;5.87;;;2.13;;
14121;SDS011;7139;48.114;11.442;2024-01-25T05:13:30;4.07;;;2.10;;
14121;SDS011;7139;48.114;11.442;2024-01-25T05:15:59;6.47;;;1.80;;
14121;SDS011;7139;48.114;11.442;2024-01-25T05:18:26;6.07;;;1.90;;
14121;SDS011;7139;48.114;11.442;2024-01-25T05:20:53;7.70;;;2.10;;
14121;SDS011;7139;48.114;11.442;2024-01-25T05:23:20;5.57;;;1.77;;
14121;SDS011;7139;48.114;11.442;2024-01-25T05:25:47;5.67;;;1.87;;
14121;SDS011;7139;48.114;11.442;2024-01-25T05:28:14;7.47;;;2.13;;
14121;SDS011;7139;48.114;11.442;2024-01-25T05:30:41;4.80;;;1.70;;
14121;SDS011;7139;48.114;11.442;2024-01-25T05:33:10;6.43;;;2.10;;
14121;SDS011;7139;48.114;11.442;2024-01-25T05:35:37;4.53;;;1.77;;
14121;SDS011;7139;48.114;11.442;2024-01-25T05:38:04;7.53;;;2.80;;
14121;SDS011;7139;48.114;11.442;2024-01-25T05:40:31;10.40;;;3.67;;
14121;SDS011;7139;48.114;11.442;2024-01-25T05:42:58;12.30;;;2.47;;
14121;SDS011;7139;48.114;11.442;2024-01-25T05:45:26;4.43;;;2.07;;
14121;SDS011;7139;48.114;11.442;2024-01-25T05:47:53;7.70;;;2.27;;
14121;SDS011;7139;48.114;11.442;2024-01-25T05:50:21;7.77;;;2.53;;
14121;SDS011;7139;48.114;11.442;2024-01-25T05:52:48;6.57;;;2.13;;
14121;SDS011;7139;48.114;11.442;2024-01-25T05:55:15;6.83;;;2.00;;
14121;SDS011;7139;48.114;11.442;2024-01-25T05:57:43;8.20;;;2.20;;
14121;SDS011;7139;48.114;11.442;2024-01-25T06:00:11;9.23;;;2.13;;
14121;SDS011;7139;48.114;11.442;2024-01-25T06:02:39;8.83;;;2.27;;
14121;SDS011;7139;48.114;11.442;2024-01-25T06:05:07;4.23;;;1.80;;
14121;SDS011;7139;48.114;11.442;2024-01-25T06:07:35;4.57;;;1.83;;
14121;SDS011;7139;48.114;11.442;2024-01-25T06:10:02;6.33;;;1.70;;
14121;SDS011;7139;48.114;11.442;2024-01-25T06:12:29;6.03;;;2.00;;
14121;SDS011;7139;48.114;11.442;2024-01-25T06:14:56;4.37;;;1.87;;
14121;SDS011;7139;48.114;11.442;2024-01-25T06:17:23;6.93;;;2.80;;
14121;SDS011;7139;48.114;11.442;2024-01-25T06:19:51;5.00;;;2.00;;
14121;SDS011;7139;48.114;11.442;2024-01-25T06:22:18;7.47;;;2.47;;
14121;SDS011;7139;48.114;11.442;2024-01-25T06:24:46;5.10;;;1.93;;
14121;SDS011;7139;48.114;11.442;2024-01-25T06:27:13;5.97;;;2.33;;
14121;SDS011;7139;48.114;11.442;2024-01-25T06:29:40;7.87;;;2.30;;
14121;SDS011;7139;48.114;11.442;2024-01-25T06:32:07;6.30;;;1.90;;
14121;SDS011;7139;48.114;11.442;2024-01-25T06:34:34;5.63;;;2.00;;
14121;SDS011;7139;48.114;11.442;2024-01-25T06:37:01;6.20;;;2.23;;
14121;SDS011;7139;48.114;11.442;2024-01-25T06:39:29;7.87;;;2.40;;
14121;SDS011;7139;48.114;11.442;2024-01-25T06:41:57;8.13;;;2.30;;
14121;SDS011;7139;48.114;11.442;2024-01-25T06:44:24;8.77;;;2.20;;
14121;SDS011;7139;48.114;11.442;2024-01-25T06:46:51;6.23;;;2.53;;
14121;SDS011;7139;48.114;11.442;2024-01-25T06:49:18;6.07;;;2.10;;
14121;SDS011;7139;48.114;11.442;2024-01-25T06:51:45;7.27;;;2.57;;
14121;SDS011;7139;48.114;11.442;2024-01-25T06:54:12;9.30;;;2.10;;
14121;SDS011;7139;48.114;11.442;2024-01-25T06:56:39;8.83;;;2.53;;
14121;SDS011;7139;48.114;11.442;2024-01-25T06:59:08;8.70;;;2.33;;
14121;SDS011;7139;48.114;11.442;2024-01-25T07:01:35;8.57;;;2.50;;
14121;SDS011;7139;48.114;11.442;2024-01-25T07:04:02;6.00;;;2.57;;
14121;SDS011;7139;48.114;11.442;2024-01-25T07:06:30;6.20;;;2.37;;
14121;SDS011;7139;48.114;11.442;2024-01-25T07:08:57;8.47;;;2.50;;
14121;SDS011;7139;48.114;11.442;2024-01-25T07:11:24;10.73;;;2.30;;
14121;SDS011;7139;48.114;11.442;2024-01-25T07:13:51;6.67;;;2.20;;
14121;SDS011;7139;48.114;11.442;2024-01-25T07:16:20;8.10;;;2.60;;
14121;SDS011;7139;48.114;11.442;2024-01-25T07:18:47;10.20;;;4.10;;
14121;SDS011;7139;48.114;11.442;2024-01-25T07:21:14;6.87;;;2.43;;
14121;SDS011;7139;48.114;11.442;2024-01-25T07:23:41;7.93;;;2.40;;
14121;SDS011;7139;48.114;11.442;2024-01-25T07:26:08;10.73;;;2.73;;
14121;SDS011;7139;48.114;11.442;2024-01-25T07:28:35;8.17;;;2.30;;
14121;SDS011;7139;48.114;11.442;2024-01-25T07:31:02;7.30;;;2.43;;
14121;SDS011;7139;48.114;11.442;2024-01-25T07:33:31;10.47;;;3.63;;
14121;SDS011;7139;48.114;11.442;2024-01-25T07:35:59;8.87;;;2.50;;
14121;SDS011;7139;48.114;11.442;2024-01-25T07:38:26;6.30;;;2.50;;
14121;SDS011;7139;48.114;11.442;2024-01-25T07:40:53;7.93;;;2.23;;
14121;SDS011;7139;48.114;11.442;2024-01-25T07:43:20;9.97;;;3.73;;
14121;SDS011;7139;48.114;11.442;2024-01-25T07:45:47;8.87;;;2.47;;
14121;SDS011;7139;48.114;11.442;2024-01-25T07:48:14;7.93;;;2.33;;
14121;SDS011;7139;48.114;11.442;2024-01-25T07:50:43;7.23;;;2.17;;
14121;SDS011;7139;48.114;11.442;2024-01-25T07:53:10;9.53;;;2.90;;
14121;SDS011;7139;48.114;11.442;2024-01-25T07:55:37;8.17;;;2.33;;
14121;SDS011;7139;48.114;11.442;2024-01-25T07:58:04;6.63;;;2.30;;
14121;SDS011;7139;48.114;11.442;2024-01-25T08:00:31;8.73;;;2.53;;
14121;SDS011;7139;48.114;11.442;2024-01-25T08:02:58;11.83;;;3.00;;
14121;SDS011;7139;48.114;11.442;2024-01-25T08:05:25;9.20;;;2.90;;
14121;SDS011;7139;48.114;11.442;2024-01-25T08:07:54;9.33;;;2.67;;
14121;SDS011;7139;48.114;11.442;2024-01-25T08:10:21;8.47;;;2.50;;
14121;SDS011;7139;48.114;11.442;2024-01-25T08:12:48;9.63;;;3.27;;
14121;SDS011;7139;48.114;11.442;2024-01-25T08:15:15;8.93;;;2.70;;
14121;SDS011;7139;48.114;11.442;2024-01-25T08:17:42;6.97;;;2.60;;
14121;SDS011;7139;48.114;11.442;2024-01-25T08:20:10;10.23;;;2.83;;
14121;SDS011;7139;48.114;11.442;2024-01-25T08:22:38;11.40;;;2.30;;
14121;SDS011;7139;48.114;11.442;2024-01-25T08:25:07;9.93;;;2.30;;
14121;SDS011;7139;48.114;11.442;2024-01-25T08:27:35;7.83;;;2.60;;
14121;SDS011;7139;48.114;11.442;2024-01-25T08:30:02;8.70;;;2.40;;
14121;SDS011;7139;48.114;11.442;2024-01-25T08:32:30;9.30;;;3.17;;
14121;SDS011;7139;48.114;11.442;2024-01-25T08:34:57;10.27;;;2.93;;
14121;SDS011;7139;48.114;11.442;2024-01-25T08:37:24;8.23;;;2.90;;
14121;SDS011;7139;48.114;11.442;2024-01-25T08:39:51;9.83;;;3.00;;
14121;SDS011;7139;48.114;11.442;2024-01-25T08:42:20;9.00;;;3.00;;
14121;SDS011;7139;48.114;11.442;2024-01-25T08:44:47;15.53;;;3.27;;
14121;SDS011;7139;48.114;11.442;2024-01-25T08:47:15;10.93;;;2.70;;
14121;SDS011;7139;48.114;11.442;2024-01-25T08:49:42;6.93;;;2.43;;
14121;SDS011;7139;48.114;11.442;2024-01-25T08:52:09;9.63;;;2.90;;
14121;SDS011;7139;48.114;11.442;2024-01-25T08:54:36;14.40;;;3.40;;
14121;SDS011;7139;48.114;11.442;2024-01-25T08:57:03;10.13;;;3.03;;
14121;SDS011;7139;48.114;11.442;2024-01-25T08:59:32;9.77;;;2.87;;
14121;SDS011;7139;48.114;11.442;2024-01-25T09:02:02;8.63;;;3.40;;
14121;SDS011;7139;48.114;11.442;2024-01-25T09:04:29;11.43;;;3.03;;
14121;SDS011;7139;48.114;11.442;2024-01-25T09:06:57;9.67;;;3.33;;
14121;SDS011;7139;48.114;11.442;2024-01-25T09:09:24;10.13;;;3.50;;
14121;SDS011;7139;48.114;11.442;2024-01-25T09:11:51;8.77;;;3.20;;
14121;SDS011;7139;48.114;11.442;2024-01-25T09:14:18;13.43;;;3.40;;
14121;SDS011;7139;48.114;11.442;2024-01-25T09:16:47;11.57;;;3.43;;
14121;SDS011;7139;48.114;11.442;2024-01-25T09:19:14;12.07;;;3.03;;
14121;SDS011;7139;48.114;11.442;2024-01-25T09:21:41;12.70;;;3.40;;
14121;SDS011;7139;48.114;11.442;2024-01-25T09:24:08;9.67;;;3.30;;
14121;SDS011;7139;48.114;11.442;2024-01-25T09:26:35;11.83;;;3.83;;
14121;SDS011;7139;48.114;11.442;2024-01-25T09:29:02;9.93;;;3.40;;
14121;SDS011;7139;48.114;11.442;2024-01-25T09:31:30;16.00;;;3.87;;
14121;SDS011;7139;48.114;11.442;2024-01-25T09:33:58;12.47;;;3.87;;
14121;SDS011;7139;48.114;11.442;2024-01-25T09:36:25;10.10;;;3.77;;
14121;SDS011;7139;48.114;11.442;2024-01-25T09:38:52;9.67;;;3.23;;
14121;SDS011;7139;48.114;11.442;2024-01-25T09:41:19;16.03;;;3.93;;
14121;SDS011;7139;48.114;11.442;2024-01-25T09:43:46;12.50;;;3.33;;
14121;SDS011;7139;48.114;11.442;2024-01-25T09:46:13;10.57;;;3.00;;
14121;SDS011;7139;48.114;11.442;2024-01-25T09:48:41;11.30;;;3.33;;
14121;SDS011;7139;48.114;11.442;2024-01-25T09:51:10;13.73;;;3.83;;
14121;SDS011;7139;48.114;11.442;2024-01-25T09:53:39;12.57;;;4.77;;
14121;SDS011;7139;48.114;11.442;2024-01-25T09:56:07;10.50;;;3.07;;
14121;SDS011;7139;48.114;11.442;2024-01-25T09:58:36;12.40;;;3.20;;
14121;SDS011;7139;48.114;11.442;2024-01-25T10:01:03;13.27;;;3.67;;
14121;SDS011;7139;48.114;11.442;2024-01-25T10:03:30;9.40;;;2.93;;
14121;SDS011;7139;48.114;11.442;2024-01-25T10:06:00;9.57;;;3.17;;
14121;SDS011;7139;48.114;11.442;2024-01-25T10:08:29;11.73;;;4.30;;
14121;SDS011;7139;48.114;11.442;2024-01-25T10:10:57;9.00;;;2.73;;
14121;SDS011;7139;48.114;11.442;2024-01-25T10:13:24;16.67;;;7.73;;
14121;SDS011;7139;48.114;11.442;2024-01-25T10:15:51;14.03;;;5.50;;
14121;SDS011;7139;48.114;11.442;2024-01-25T10:18:19;9.47;;;3.43;;
14121;SDS011;7139;48.114;11.442;2024-01-25T10:20:46;9.50;;;2.90;;
14121;SDS011;7139;48.114;11.442;2024-01-25T10:23:13;17.60;;;5.17;;
14121;SDS011;7139;48.114;11.442;2024-01-25T10:25:42;10.93;;;4.90;;
14121;SDS011;7139;48.114;11.442;2024-01-25T10:28:09;11.70;;;4.80;;
14121;SDS011;7139;48.114;11.442;2024-01-25T10:30:36;15.13;;;4.70;;
14121;SDS011;7139;48.114;11.442;2024-01-25T10:33:03;14.47;;;4.60;;
14121;SDS011;7139;48.114;11.442;2024-01-25T10:35:31;11.50;;;3.43;;
14121;SDS011;7139;48.114;11.442;2024-01-25T10:37:58;9.63;;;3.33;;
14121;SDS011;7139;48.114;11.442;2024-01-25T10:40:26;15.07;;;4.10;;
14121;SDS011;7139;48.114;11.442;2024-01-25T10:42:55;12.67;;;3.63;;
14121;SDS011;7139;48.114;11.442;2024-01-25T10:45:22;9.23;;;3.60;;
14121;SDS011;7139;48.114;11.442;2024-01-25T10:47:49;14.37;;;3.97;;
14121;SDS011;7139;48.114;11.442;2024-01-25T10:50:16;11.93;;;3.80;;
14121;SDS011;7139;48.114;11.442;2024-01-25T10:52:43;10.53;;;3.83;;
14121;SDS011;7139;48.114;11.442;2024-01-25T10:55:11;13.60;;;4.90;;
14121;SDS011;7139;48.114;11.442;2024-01-25T10:57:39;16.43;;;5.83;;
14121;SDS011;7139;48.114;11.442;2024-01-25T11:00:09;13.13;;;4.27;;
14121;SDS011;7139;48.114;11.442;2024-01-25T11:02:37;10.80;;;3.80;;
14121;SDS011;7139;48.114;11.442;2024-01-25T11:05:06;12.23;;;3.50;;
14121;SDS011;7139;48.114;11.442;2024-01-25T11:07:40;11.93;;;3.80;;
14121;SDS011;7139;48.114;11.442;2024-01-25T11:10:10;13.20;;;3.20;;
14121;SDS011;7139;48.114;11.442;2024-01-25T11:12:46;9.13;;;2.73;;
14121;SDS011;7139;48.114;11.442;2024-01-25T11:15:18;8.97;;;3.33;;
14121;SDS011;7139;48.114;11.442;2024-01-25T11:17:50;11.37;;;3.27;;
14121;SDS011;7139;48.114;11.442;2024-01-25T11:20:19;13.00;;;3.30;;
14121;SDS011;7139;48.114;11.442;2024-01-25T11:22:46;10.73;;;3.33;;
14121;SDS011;7139;48.114;11.442;2024-01-25T11:25:18;14.10;;;3.60;;
14121;SDS011;7139;48.114;11.442;2024-01-25T11:27:46;10.00;;;2.97;;
14121;SDS011;7139;48.114;11.442;2024-01-25T11:30:14;10.43;;;2.87;;
14121;SDS011;7139;48.114;11.442;2024-01-25T11:32:42;11.83;;;3.53;;
14121;SDS011;7139;48.114;11.442;2024-01-25T11:35:10;7.73;;;2.80;;
14121;SDS011;7139;48.114;11.442;2024-01-25T11:37:41;9.67;;;3.00;;
14121;SDS011;7139;48.114;11.442;2024-01-25T11:40:09;9.60;;;2.50;;
14121;SDS011;7139;48.114;11.442;2024-01-25T11:42:36;8.90;;;2.67;;
14121;SDS011;7139;48.114;11.442;2024-01-25T11:45:03;10.13;;;3.00;;
14121;SDS011;7139;48.114;11.442;2024-01-25T11:47:31;11.37;;;3.17;;
14121;SDS011;7139;48.114;11.442;2024-01-25T11:49:59;6.37;;;2.60;;
14121;SDS011;7139;48.114;11.442;2024-01-25T11:52:27;7.93;;;2.73;;
14121;SDS011;7139;48.114;11.442;2024-01-25T11:54:54;11.13;;;2.80;;
14121;SDS011;7139;48.114;11.442;2024-01-25T11:57:21;8.00;;;3.33;;
14121;SDS011;7139;48.114;11.442;2024-01-25T11:59:48;8.70;;;2.93;;
14121;SDS011;7139;48.114;11.442;2024-01-25T12:02:15;9.40;;;2.60;;
14121;SDS011;7139;48.114;11.442;2024-01-25T12:04:42;8.17;;;2.83;;
14121;SDS011;7139;48.114;11.442;2024-01-25T12:07:11;11.90;;;3.03;;
14121;SDS011;7139;48.114;11.442;2024-01-25T12:09:38;8.77;;;2.80;;
14121;SDS011;7139;48.114;11.442;2024-01-25T12:12:05;8.03;;;2.73;;
14121;SDS011;7139;48.114;11.442;2024-01-25T12:14:32;8.10;;;2.63;;
14121;SDS011;7139;48.114;11.442;2024-01-25T12:17:00;7.43;;;2.40;;
14121;SDS011;7139;48.114;11.442;2024-01-25T12:19:28;9.53;;;3.07;;
14121;SDS011;7139;48.114;11.442;2024-01-25T12:21:56;7.80;;;2.17;;
14121;SDS011;7139;48.114;11.442;2024-01-25T12:24:24;8.40;;;2.37;;
14121;SDS011;7139;48.114;11.442;2024-01-25T12:26:51;6.43;;;2.57;;
14121;SDS011;7139;48.114;11.442;2024-01-25T12:29:18;6.00;;;2.43;;
14121;SDS011;7139;48.114;11.442;2024-01-25T12:31:45;8.47;;;2.40;;
14121;SDS011;7139;48.114;11.442;2024-01-25T12:34:13;7.50;;;2.30;;
14121;SDS011;7139;48.114;11.442;2024-01-25T12:36:40;6.87;;;2.20;;
14121;SDS011;7139;48.114;11.442;2024-01-25T12:39:08;4.33;;;2.00;;
14121;SDS011;7139;48.114;11.442;2024-01-25T12:41:37;6.77;;;2.63;;
14121;SDS011;7139;48.114;11.442;2024-01-25T12:44:04;7.83;;;2.17;;
14121;SDS011;7139;48.114;11.442;2024-01-25T12:46:31;6.47;;;2.43;;
14121;SDS011;7139;48.114;11.442;2024-01-25T12:48:58;6.53;;;2.40;;
14121;SDS011;7139;48.114;11.442;2024-01-25T12:51:26;6.57;;;2.40;;
14121;SDS011;7139;48.114;11.442;2024-01-25T12:53:53;6.40;;;2.13;;
14121;SDS011;7139;48.114;11.442;2024-01-25T12:56:20;6.17;;;2.17;;
14121;SDS011;7139;48.114;11.442;2024-01-25T12:58:48;5.60;;;2.00;;
14121;SDS011;7139;48.114;11.442;2024-01-25T13:01:15;6.77;;;2.70;;
14121;SDS011;7139;48.114;11.442;2024-01-25T13:03:42;8.13;;;2.60;;
14121;SDS011;7139;48.114;11.442;2024-01-25T13:06:11;5.43;;;2.03;;
14121;SDS011;7139;48.114;11.442;2024-01-25T13:08:38;7.90;;;2.37;;
14121;SDS011;7139;48.114;11.442;2024-01-25T13:11:06;6.10;;;2.10;;
14121;SDS011;7139;48.114;11.442;2024-01-25T13:13:33;7.43;;;2.50;;
14121;SDS011;7139;48.114;11.442;2024-01-25T13:16:01;4.33;;;1.90;;
14121;SDS011;7139;48.114;11.442;2024-01-25T13:18:28;8.10;;;2.83;;
14121;SDS011;7139;48.114;11.442;2024-01-25T13:20:55;8.23;;;2.43;;
14121;SDS011;7139;48.114;11.442;2024-01-25T13:23:23;6.37;;;2.47;;
14121;SDS011;7139;48.114;11.442;2024-01-25T13:25:50;6.67;;;2.27;;
14121;SDS011;7139;48.114;11.442;2024-01-25T13:28:17;5.57;;;2.67;;
14121;SDS011;7139;48.114;11.442;2024-01-25T13:30:44;4.70;;;1.90;;
14121;SDS011;7139;48.114;11.442;2024-01-25T13:33:13;7.00;;;2.57;;
14121;SDS011;7139;48.114;11.442;2024-01-25T13:35:40;8.33;;;2.33;;
14121;SDS011;7139;48.114;11.442;2024-01-25T13:38:07;6.20;;;3.20;;
14121;SDS011;7139;48.114;11.442;2024-01-25T13:40:39;8.80;;;2.40;;
14121;SDS011;7139;48.114;11.442;2024-01-25T13:43:06;6.63;;;2.17;;
14121;SDS011;7139;48.114;11.442;2024-01-25T13:45:33;7.40;;;2.60;;
14121;SDS011;7139;48.114;11.442;2024-01-25T13:48:00;4.77;;;2.07;;
14121;SDS011;7139;48.114;11.442;2024-01-25T13:50:28;4.97;;;2.07;;
14121;SDS011;7139;48.114;11.442;2024-01-25T13:52:56;6.80;;;2.17;;
14121;SDS011;7139;48.114;11.442;2024-01-25T13:55:23;5.87;;;2.20;;
14121;SDS011;7139;48.114;11.442;2024-01-25T13:57:50;7.30;;;3.53;;
14121;SDS011;7139;48.114;11.442;2024-01-25T14:00:18;8.10;;;2.50;;
14121;SDS011;7139;48.114;11.442;2024-01-25T14:02:45;7.87;;;2.13;;
14121;SDS011;7139;48.114;11.442;2024-01-25T14:05:13;3.13;;;1.83;;
14121;SDS011;7139;48.114;11.442;2024-01-25T14:07:41;5.10;;;2.10;;
14121;SDS011;7139;48.114;11.442;2024-01-25T14:10:08;7.00;;;2.20;;
14121;SDS011;7139;48.114;11.442;2024-01-25T14:12:35;7.70;;;2.20;;
14121;SDS011;7139;48.114;11.442;2024-01-25T14:15:03;4.67;;;2.20;;
14121;SDS011;7139;48.114;11.442;2024-01-25T14:17:30;5.40;;;2.27;;
14121;SDS011;7139;48.114;11.442;2024-01-25T14:19:57;7.13;;;2.57;;
14121;SDS011;7139;48.114;11.442;2024-01-25T14:22:24;5.83;;;2.23;;
14121;SDS011;7139;48.114;11.442;2024-01-25T14:24:52;5.43;;;2.30;;
14121;SDS011;7139;48.114;11.442;2024-01-25T14:27:19;5.97;;;2.13;;
14121;SDS011;7139;48.114;11.442;2024-01-25T14:29:47;5.97;;;2.20;;
14121;SDS011;7139;48.114;11.442;2024-01-25T14:32:14;5.87;;;2.10;;
14121;SDS011;7139;48.114;11.442;2024-01-25T14:34:42;5.53;;;1.77;;
14121;SDS011;7139;48.114;11.442;2024-01-25T14:37:09;5.77;;;2.10;;
14121;SDS011;7139;48.114;11.442;2024-01-25T14:39:36;5.53;;;1.80;;
14121;SDS011;7139;48.114;11.442;2024-01-25T14:42:08;5.87;;;2.33;;
14121;SDS011;7139;48.114;11.442;2024-01-25T14:44:36;4.10;;;1.83;;
14121;SDS011;7139;48.114;11.442;2024-01-25T14:47:03;3.77;;;1.77;;